Navasota, Texas
Current Conditions -  °F | °C
As of 2:15 AM on Thursday 29 Jan 2015 (Local Time) from K11R Reporting Station
Clear Clear  
Wind Chill: 60°   Ceiling: Unl
Heat Index: 60°   Visibility: 10mi
Dew Point: 59°   Wind: 5mph
Humidity: 96%   Direction: 180°S
Pressure: 30.16"   Gusts: NA
Location:  30.39°N, 96.09°W
Report Text: K11R 290815Z AUTO 18004KT 10SM CLR 16/15 A3016 RMK AO2 T01570150
Loading
Personal Weather Stations






























Interactive Weather Map New forecast layout! Learn more

10-Day Weather Forecast

Advertisements
Track Severe Weather on mobile